オウル の空港の天気 - METARとTAF

オウル空港 ( EFOU / OUL ) - フィンランド Oulunsalo
飛行場実況気象(Metar)
観測時間01/20 19:50 EET (01/20 17:50 UTC)
風向・風速西 7m/s
視程10km以上
天気現象
全天の8割程度の雲 雲底高度 1680m
気温-1℃
湿度74%
気圧1007hPa
METAREFOU 201750Z AUTO 28013KT 9999 BKN055/// M01/M05 Q1007 R12/39//95
過去の天気等 Google飛行場航空写真 Wunderground天気予報

過去48時間のMETAR

飛行場予報(TAF)
発表時間: 1/20 19:29 EET (1/20 17:29 UTC)
予報対象時間: 20日20時 EET ~ 21日20時 EET
風向・風速西北西 7m/s
視程10km以上
なし
20日20時 EET ~ 21日4時 EET に一時的に
風向・風速西北西 8m/s 瞬間風速 13m/s
21日4時 EET ~ 21日8時 EET に一時的に
視程6,000m
天気現象弱いしゅう雪
TAF EFOU 201729Z 2018/2118 30013KT CAVOK
TEMPO 2018/2102 30015G25KT
TEMPO 2102/2106 6000 -SHSN